sensor_id;sensor_type;location;lat;lon;timestamp;temperature;humidity
1700;DHT22;847;48.058;7.810;2023-07-29T00:02:18;19.30;99.00
1700;DHT22;847;48.058;7.810;2023-07-29T00:04:45;19.20;99.00
1700;DHT22;847;48.058;7.810;2023-07-29T00:07:12;19.30;99.00
1700;DHT22;847;48.058;7.810;2023-07-29T00:09:39;19.20;99.00
1700;DHT22;847;48.058;7.810;2023-07-29T00:12:07;19.20;99.00
1700;DHT22;847;48.058;7.810;2023-07-29T00:14:34;19.20;99.00
1700;DHT22;847;48.058;7.810;2023-07-29T00:17:01;19.20;99.00
1700;DHT22;847;48.058;7.810;2023-07-29T00:19:27;19.10;99.00
1700;DHT22;847;48.058;7.810;2023-07-29T00:21:54;19.00;99.00
1700;DHT22;847;48.058;7.810;2023-07-29T00:24:21;19.10;99.00
1700;DHT22;847;48.058;7.810;2023-07-29T00:26:47;19.10;99.00
1700;DHT22;847;48.058;7.810;2023-07-29T00:29:16;19.00;99.00
1700;DHT22;847;48.058;7.810;2023-07-29T00:31:42;19.10;99.00
1700;DHT22;847;48.058;7.810;2023-07-29T00:34:09;19.10;99.00
1700;DHT22;847;48.058;7.810;2023-07-29T00:36:36;19.00;99.00
1700;DHT22;847;48.058;7.810;2023-07-29T00:39:03;19.00;99.00
1700;DHT22;847;48.058;7.810;2023-07-29T00:41:29;18.90;99.00
1700;DHT22;847;48.058;7.810;2023-07-29T00:43:56;18.90;99.00
1700;DHT22;847;48.058;7.810;2023-07-29T00:46:24;19.00;99.00
1700;DHT22;847;48.058;7.810;2023-07-29T00:48:51;19.10;99.00
1700;DHT22;847;48.058;7.810;2023-07-29T00:51:18;19.00;99.00
1700;DHT22;847;48.058;7.810;2023-07-29T00:53:45;19.00;99.00
1700;DHT22;847;48.058;7.810;2023-07-29T00:56:12;19.10;99.00
1700;DHT22;847;48.058;7.810;2023-07-29T00:58:38;19.10;99.00
1700;DHT22;847;48.058;7.810;2023-07-29T01:01:05;19.10;99.00
1700;DHT22;847;48.058;7.810;2023-07-29T01:03:33;19.10;99.00
1700;DHT22;847;48.058;7.810;2023-07-29T01:06:09;19.00;99.00
1700;DHT22;847;48.058;7.810;2023-07-29T01:08:45;18.90;99.00
1700;DHT22;847;48.058;7.810;2023-07-29T01:11:34;18.90;99.00
1700;DHT22;847;48.058;7.810;2023-07-29T01:14:05;19.00;99.00
1700;DHT22;847;48.058;7.810;2023-07-29T01:16:39;19.00;99.00
1700;DHT22;847;48.058;7.810;2023-07-29T01:19:26;19.00;99.00
1700;DHT22;847;48.058;7.810;2023-07-29T01:21:59;19.00;99.00
1700;DHT22;847;48.058;7.810;2023-07-29T01:24:28;18.80;99.00
1700;DHT22;847;48.058;7.810;2023-07-29T01:26:55;18.80;99.00
1700;DHT22;847;48.058;7.810;2023-07-29T01:29:22;18.70;99.00
1700;DHT22;847;48.058;7.810;2023-07-29T01:31:52;18.70;99.00
1700;DHT22;847;48.058;7.810;2023-07-29T01:34:26;18.80;99.00
1700;DHT22;847;48.058;7.810;2023-07-29T01:36:54;18.80;99.00
1700;DHT22;847;48.058;7.810;2023-07-29T01:39:24;18.80;99.00
1700;DHT22;847;48.058;7.810;2023-07-29T01:41:53;18.80;99.00
1700;DHT22;847;48.058;7.810;2023-07-29T01:44:20;18.80;99.00
1700;DHT22;847;48.058;7.810;2023-07-29T01:46:47;18.80;99.00
1700;DHT22;847;48.058;7.810;2023-07-29T01:49:14;18.80;99.00
1700;DHT22;847;48.058;7.810;2023-07-29T01:51:41;18.80;99.00
1700;DHT22;847;48.058;7.810;2023-07-29T01:54:07;18.80;99.00
1700;DHT22;847;48.058;7.810;2023-07-29T01:56:34;18.80;99.00
1700;DHT22;847;48.058;7.810;2023-07-29T01:59:03;18.80;99.00
1700;DHT22;847;48.058;7.810;2023-07-29T02:01:30;18.80;99.00
1700;DHT22;847;48.058;7.810;2023-07-29T02:03:57;18.80;99.00
1700;DHT22;847;48.058;7.810;2023-07-29T02:06:24;18.90;99.00
1700;DHT22;847;48.058;7.810;2023-07-29T02:08:52;18.90;99.00
1700;DHT22;847;48.058;7.810;2023-07-29T02:11:19;18.90;99.00
1700;DHT22;847;48.058;7.810;2023-07-29T02:13:46;18.90;99.00
1700;DHT22;847;48.058;7.810;2023-07-29T02:16:14;18.90;99.00
1700;DHT22;847;48.058;7.810;2023-07-29T02:18:40;18.90;99.00
1700;DHT22;847;48.058;7.810;2023-07-29T02:21:07;18.90;99.00
1700;DHT22;847;48.058;7.810;2023-07-29T02:23:34;19.00;99.00
1700;DHT22;847;48.058;7.810;2023-07-29T02:26:00;19.00;99.00
1700;DHT22;847;48.058;7.810;2023-07-29T02:28:27;19.00;99.00
1700;DHT22;847;48.058;7.810;2023-07-29T02:31:09;19.00;99.00
1700;DHT22;847;48.058;7.810;2023-07-29T02:33:38;19.00;99.00
1700;DHT22;847;48.058;7.810;2023-07-29T02:36:05;19.00;99.00
1700;DHT22;847;48.058;7.810;2023-07-29T02:38:32;18.90;99.00
1700;DHT22;847;48.058;7.810;2023-07-29T02:40:58;18.90;99.00
1700;DHT22;847;48.058;7.810;2023-07-29T02:43:25;18.90;99.00
1700;DHT22;847;48.058;7.810;2023-07-29T02:45:52;18.90;99.00
1700;DHT22;847;48.058;7.810;2023-07-29T02:48:18;18.90;99.00
1700;DHT22;847;48.058;7.810;2023-07-29T02:50:46;18.90;99.00
1700;DHT22;847;48.058;7.810;2023-07-29T02:53:13;18.90;99.00
1700;DHT22;847;48.058;7.810;2023-07-29T02:55:40;18.90;99.00
1700;DHT22;847;48.058;7.810;2023-07-29T02:58:07;18.80;99.00
1700;DHT22;847;48.058;7.810;2023-07-29T03:00:34;18.80;99.00
1700;DHT22;847;48.058;7.810;2023-07-29T03:03:01;18.70;99.00
1700;DHT22;847;48.058;7.810;2023-07-29T03:05:27;18.70;99.00
1700;DHT22;847;48.058;7.810;2023-07-29T03:07:57;18.60;99.00
1700;DHT22;847;48.058;7.810;2023-07-29T03:10:24;18.60;99.00
1700;DHT22;847;48.058;7.810;2023-07-29T03:12:52;18.60;99.00
1700;DHT22;847;48.058;7.810;2023-07-29T03:15:23;18.60;99.00
1700;DHT22;847;48.058;7.810;2023-07-29T03:17:50;18.70;99.00
1700;DHT22;847;48.058;7.810;2023-07-29T03:20:17;18.70;99.00
1700;DHT22;847;48.058;7.810;2023-07-29T03:22:44;18.70;99.00
1700;DHT22;847;48.058;7.810;2023-07-29T03:25:13;18.80;99.00
1700;DHT22;847;48.058;7.810;2023-07-29T03:27:40;18.80;99.00
1700;DHT22;847;48.058;7.810;2023-07-29T03:30:07;18.80;99.00
1700;DHT22;847;48.058;7.810;2023-07-29T03:32:33;18.80;99.00
1700;DHT22;847;48.058;7.810;2023-07-29T03:35:00;18.80;99.00
1700;DHT22;847;48.058;7.810;2023-07-29T03:37:27;18.80;99.00
1700;DHT22;847;48.058;7.810;2023-07-29T03:39:54;18.80;99.00
1700;DHT22;847;48.058;7.810;2023-07-29T03:42:22;18.80;99.00
1700;DHT22;847;48.058;7.810;2023-07-29T03:44:48;18.80;99.00
1700;DHT22;847;48.058;7.810;2023-07-29T03:47:15;18.70;99.00
1700;DHT22;847;48.058;7.810;2023-07-29T03:49:42;18.60;99.00
1700;DHT22;847;48.058;7.810;2023-07-29T03:52:09;18.50;99.00
1700;DHT22;847;48.058;7.810;2023-07-29T03:54:36;18.50;99.00
1700;DHT22;847;48.058;7.810;2023-07-29T03:57:03;18.50;99.00
1700;DHT22;847;48.058;7.810;2023-07-29T03:59:31;18.50;99.00
1700;DHT22;847;48.058;7.810;2023-07-29T04:01:57;18.60;99.00
1700;DHT22;847;48.058;7.810;2023-07-29T04:04:24;18.60;99.00
1700;DHT22;847;48.058;7.810;2023-07-29T04:06:51;18.70;99.00
1700;DHT22;847;48.058;7.810;2023-07-29T04:09:18;18.70;99.00
1700;DHT22;847;48.058;7.810;2023-07-29T04:11:45;18.70;99.00
1700;DHT22;847;48.058;7.810;2023-07-29T04:14:12;18.80;99.00
1700;DHT22;847;48.058;7.810;2023-07-29T04:16:40;18.70;99.00
1700;DHT22;847;48.058;7.810;2023-07-29T04:19:06;18.70;99.00
1700;DHT22;847;48.058;7.810;2023-07-29T04:21:33;18.80;99.00
1700;DHT22;847;48.058;7.810;2023-07-29T04:24:00;18.80;99.00
1700;DHT22;847;48.058;7.810;2023-07-29T04:26:26;18.80;99.00
1700;DHT22;847;48.058;7.810;2023-07-29T04:28:53;18.80;99.00
1700;DHT22;847;48.058;7.810;2023-07-29T04:31:20;18.80;99.00
1700;DHT22;847;48.058;7.810;2023-07-29T04:33:48;18.70;99.00
1700;DHT22;847;48.058;7.810;2023-07-29T04:36:15;18.70;99.00
1700;DHT22;847;48.058;7.810;2023-07-29T04:38:41;18.70;99.00
1700;DHT22;847;48.058;7.810;2023-07-29T04:41:08;18.70;99.00
1700;DHT22;847;48.058;7.810;2023-07-29T04:43:35;18.70;99.00
1700;DHT22;847;48.058;7.810;2023-07-29T04:46:02;18.70;99.00
1700;DHT22;847;48.058;7.810;2023-07-29T04:48:28;18.70;99.00
1700;DHT22;847;48.058;7.810;2023-07-29T04:50:56;18.70;99.00
1700;DHT22;847;48.058;7.810;2023-07-29T04:53:23;18.80;99.00
1700;DHT22;847;48.058;7.810;2023-07-29T04:55:50;18.80;99.00
1700;DHT22;847;48.058;7.810;2023-07-29T04:58:17;18.80;99.00
1700;DHT22;847;48.058;7.810;2023-07-29T05:00:43;18.80;99.00
1700;DHT22;847;48.058;7.810;2023-07-29T05:03:10;18.90;99.00
1700;DHT22;847;48.058;7.810;2023-07-29T05:05:37;18.90;99.00
1700;DHT22;847;48.058;7.810;2023-07-29T05:08:05;18.90;99.00
1700;DHT22;847;48.058;7.810;2023-07-29T05:10:32;19.00;99.00
1700;DHT22;847;48.058;7.810;2023-07-29T05:12:58;19.00;99.00
1700;DHT22;847;48.058;7.810;2023-07-29T05:15:25;19.00;99.00
1700;DHT22;847;48.058;7.810;2023-07-29T05:17:52;19.10;99.00
1700;DHT22;847;48.058;7.810;2023-07-29T05:20:18;19.10;99.00
1700;DHT22;847;48.058;7.810;2023-07-29T05:22:45;19.10;99.00
1700;DHT22;847;48.058;7.810;2023-07-29T05:25:13;19.20;99.00
1700;DHT22;847;48.058;7.810;2023-07-29T05:27:40;19.20;99.00
1700;DHT22;847;48.058;7.810;2023-07-29T05:30:08;19.30;99.00
1700;DHT22;847;48.058;7.810;2023-07-29T05:32:34;19.30;99.00
1700;DHT22;847;48.058;7.810;2023-07-29T05:35:01;19.40;99.00
1700;DHT22;847;48.058;7.810;2023-07-29T05:37:28;19.40;99.00
1700;DHT22;847;48.058;7.810;2023-07-29T05:39:55;19.50;99.00
1700;DHT22;847;48.058;7.810;2023-07-29T05:42:23;19.60;99.00
1700;DHT22;847;48.058;7.810;2023-07-29T05:44:50;19.60;99.00
1700;DHT22;847;48.058;7.810;2023-07-29T05:47:16;19.60;99.00
1700;DHT22;847;48.058;7.810;2023-07-29T05:49:43;19.60;99.00
1700;DHT22;847;48.058;7.810;2023-07-29T05:52:10;19.60;99.00
1700;DHT22;847;48.058;7.810;2023-07-29T05:54:37;19.50;99.00
1700;DHT22;847;48.058;7.810;2023-07-29T05:57:04;19.60;99.00
1700;DHT22;847;48.058;7.810;2023-07-29T05:59:32;19.60;99.00
1700;DHT22;847;48.058;7.810;2023-07-29T06:01:59;19.60;99.00
1700;DHT22;847;48.058;7.810;2023-07-29T06:04:26;19.70;99.00
1700;DHT22;847;48.058;7.810;2023-07-29T06:06:53;19.70;99.00
1700;DHT22;847;48.058;7.810;2023-07-29T06:09:21;19.80;99.00
1700;DHT22;847;48.058;7.810;2023-07-29T06:11:47;19.80;99.00
1700;DHT22;847;48.058;7.810;2023-07-29T06:14:14;19.70;99.00
1700;DHT22;847;48.058;7.810;2023-07-29T06:16:43;19.70;99.00
1700;DHT22;847;48.058;7.810;2023-07-29T06:19:10;19.70;99.00
1700;DHT22;847;48.058;7.810;2023-07-29T06:21:36;19.70;99.00
1700;DHT22;847;48.058;7.810;2023-07-29T06:24:03;19.70;99.00
1700;DHT22;847;48.058;7.810;2023-07-29T06:26:30;19.70;99.00
1700;DHT22;847;48.058;7.810;2023-07-29T06:28:57;19.60;99.00
1700;DHT22;847;48.058;7.810;2023-07-29T06:31:24;19.60;99.00
1700;DHT22;847;48.058;7.810;2023-07-29T06:33:52;19.60;99.00
1700;DHT22;847;48.058;7.810;2023-07-29T06:36:20;19.70;99.00
1700;DHT22;847;48.058;7.810;2023-07-29T06:38:47;19.70;99.00
1700;DHT22;847;48.058;7.810;2023-07-29T06:41:13;19.70;99.00
1700;DHT22;847;48.058;7.810;2023-07-29T06:43:40;19.70;99.00
1700;DHT22;847;48.058;7.810;2023-07-29T06:46:07;19.70;99.00
1700;DHT22;847;48.058;7.810;2023-07-29T06:48:33;19.70;99.00
1700;DHT22;847;48.058;7.810;2023-07-29T06:51:02;19.80;99.00
1700;DHT22;847;48.058;7.810;2023-07-29T06:53:28;19.80;99.00
1700;DHT22;847;48.058;7.810;2023-07-29T06:55:55;19.90;99.00
1700;DHT22;847;48.058;7.810;2023-07-29T06:58:22;19.90;99.00
1700;DHT22;847;48.058;7.810;2023-07-29T07:00:49;19.90;99.00
1700;DHT22;847;48.058;7.810;2023-07-29T07:03:18;20.00;99.00
1700;DHT22;847;48.058;7.810;2023-07-29T07:05:45;20.00;99.00
1700;DHT22;847;48.058;7.810;2023-07-29T07:08:13;20.10;99.00
1700;DHT22;847;48.058;7.810;2023-07-29T07:10:40;20.20;99.00
1700;DHT22;847;48.058;7.810;2023-07-29T07:13:07;20.20;99.00
1700;DHT22;847;48.058;7.810;2023-07-29T07:15:33;20.30;99.00
1700;DHT22;847;48.058;7.810;2023-07-29T07:18:00;20.30;99.00
1700;DHT22;847;48.058;7.810;2023-07-29T07:20:27;20.40;99.00
1700;DHT22;847;48.058;7.810;2023-07-29T07:22:54;20.40;99.00
1700;DHT22;847;48.058;7.810;2023-07-29T07:25:22;20.50;99.00
1700;DHT22;847;48.058;7.810;2023-07-29T07:27:49;20.40;99.00
1700;DHT22;847;48.058;7.810;2023-07-29T07:30:16;20.50;99.00
1700;DHT22;847;48.058;7.810;2023-07-29T07:32:42;20.50;99.00
1700;DHT22;847;48.058;7.810;2023-07-29T07:35:10;20.50;99.00
1700;DHT22;847;48.058;7.810;2023-07-29T07:37:37;20.60;99.00
1700;DHT22;847;48.058;7.810;2023-07-29T07:40:05;20.70;99.00
1700;DHT22;847;48.058;7.810;2023-07-29T07:42:34;20.70;99.00
1700;DHT22;847;48.058;7.810;2023-07-29T07:45:01;20.80;99.00
1700;DHT22;847;48.058;7.810;2023-07-29T07:47:27;20.80;99.00
1700;DHT22;847;48.058;7.810;2023-07-29T07:49:54;20.80;99.00
1700;DHT22;847;48.058;7.810;2023-07-29T07:52:21;20.90;99.00
1700;DHT22;847;48.058;7.810;2023-07-29T07:54:51;20.90;99.00
1700;DHT22;847;48.058;7.810;2023-07-29T07:57:19;21.00;99.00
1700;DHT22;847;48.058;7.810;2023-07-29T07:59:47;21.00;99.00
1700;DHT22;847;48.058;7.810;2023-07-29T08:02:14;21.10;99.00
1700;DHT22;847;48.058;7.810;2023-07-29T08:04:41;21.10;99.00
1700;DHT22;847;48.058;7.810;2023-07-29T08:07:08;21.20;99.00
1700;DHT22;847;48.058;7.810;2023-07-29T08:09:34;21.30;99.00
1700;DHT22;847;48.058;7.810;2023-07-29T08:12:01;21.40;99.00
1700;DHT22;847;48.058;7.810;2023-07-29T08:14:28;21.50;99.00
1700;DHT22;847;48.058;7.810;2023-07-29T08:16:56;21.60;99.00
1700;DHT22;847;48.058;7.810;2023-07-29T08:19:23;21.70;99.00
1700;DHT22;847;48.058;7.810;2023-07-29T08:21:49;21.70;99.00
1700;DHT22;847;48.058;7.810;2023-07-29T08:24:16;21.70;99.00
1700;DHT22;847;48.058;7.810;2023-07-29T08:26:43;21.70;99.00
1700;DHT22;847;48.058;7.810;2023-07-29T08:29:09;21.80;99.00
1700;DHT22;847;48.058;7.810;2023-07-29T08:31:36;21.80;99.00
1700;DHT22;847;48.058;7.810;2023-07-29T08:34:04;21.80;99.00
1700;DHT22;847;48.058;7.810;2023-07-29T08:36:31;21.80;99.00
1700;DHT22;847;48.058;7.810;2023-07-29T08:38:58;21.90;99.00
1700;DHT22;847;48.058;7.810;2023-07-29T08:41:26;21.90;99.00
1700;DHT22;847;48.058;7.810;2023-07-29T08:44:01;22.00;99.00
1700;DHT22;847;48.058;7.810;2023-07-29T08:46:43;22.10;99.00
1700;DHT22;847;48.058;7.810;2023-07-29T08:49:13;22.10;99.00
1700;DHT22;847;48.058;7.810;2023-07-29T08:51:42;22.20;99.00
1700;DHT22;847;48.058;7.810;2023-07-29T08:54:10;22.30;99.00
1700;DHT22;847;48.058;7.810;2023-07-29T08:56:37;22.40;99.00
1700;DHT22;847;48.058;7.810;2023-07-29T08:59:05;22.50;99.00
1700;DHT22;847;48.058;7.810;2023-07-29T09:01:31;22.70;99.00
1700;DHT22;847;48.058;7.810;2023-07-29T09:03:59;22.80;99.00
1700;DHT22;847;48.058;7.810;2023-07-29T09:06:27;22.80;99.00
1700;DHT22;847;48.058;7.810;2023-07-29T09:08:54;22.70;99.00
1700;DHT22;847;48.058;7.810;2023-07-29T09:11:22;22.70;99.00
1700;DHT22;847;48.058;7.810;2023-07-29T09:13:48;22.70;99.00
1700;DHT22;847;48.058;7.810;2023-07-29T09:16:15;22.70;99.00
1700;DHT22;847;48.058;7.810;2023-07-29T09:18:42;22.80;99.00
1700;DHT22;847;48.058;7.810;2023-07-29T09:21:09;22.80;99.00
1700;DHT22;847;48.058;7.810;2023-07-29T09:23:40;22.80;99.00
1700;DHT22;847;48.058;7.810;2023-07-29T09:26:07;22.80;99.00
1700;DHT22;847;48.058;7.810;2023-07-29T09:28:36;22.80;99.00
1700;DHT22;847;48.058;7.810;2023-07-29T09:31:03;22.80;99.00
1700;DHT22;847;48.058;7.810;2023-07-29T09:33:32;22.80;99.00
1700;DHT22;847;48.058;7.810;2023-07-29T09:36:00;22.90;98.80
1700;DHT22;847;48.058;7.810;2023-07-29T09:38:28;22.90;99.00
1700;DHT22;847;48.058;7.810;2023-07-29T09:40:57;22.80;99.00
1700;DHT22;847;48.058;7.810;2023-07-29T09:43:25;22.80;98.50
1700;DHT22;847;48.058;7.810;2023-07-29T09:45:52;22.90;98.50
1700;DHT22;847;48.058;7.810;2023-07-29T09:48:22;22.80;98.30
1700;DHT22;847;48.058;7.810;2023-07-29T09:50:49;22.80;98.50
1700;DHT22;847;48.058;7.810;2023-07-29T09:53:16;22.90;98.00
1700;DHT22;847;48.058;7.810;2023-07-29T09:55:46;23.10;97.30
1700;DHT22;847;48.058;7.810;2023-07-29T09:58:25;23.00;97.20
1700;DHT22;847;48.058;7.810;2023-07-29T10:00:52;23.00;97.20
1700;DHT22;847;48.058;7.810;2023-07-29T10:03:21;23.00;96.90
1700;DHT22;847;48.058;7.810;2023-07-29T10:05:48;23.10;96.70
1700;DHT22;847;48.058;7.810;2023-07-29T10:08:16;23.10;96.60
1700;DHT22;847;48.058;7.810;2023-07-29T10:10:43;23.10;95.90
1700;DHT22;847;48.058;7.810;2023-07-29T10:13:10;23.10;96.40
1700;DHT22;847;48.058;7.810;2023-07-29T10:15:38;23.10;96.40
1700;DHT22;847;48.058;7.810;2023-07-29T10:18:06;23.10;97.40
1700;DHT22;847;48.058;7.810;2023-07-29T10:20:34;23.20;96.60
1700;DHT22;847;48.058;7.810;2023-07-29T10:23:02;23.30;96.00
1700;DHT22;847;48.058;7.810;2023-07-29T10:25:38;23.20;95.60
1700;DHT22;847;48.058;7.810;2023-07-29T10:28:08;23.30;96.30
1700;DHT22;847;48.058;7.810;2023-07-29T10:30:34;23.20;95.90
1700;DHT22;847;48.058;7.810;2023-07-29T10:33:04;23.20;96.70
1700;DHT22;847;48.058;7.810;2023-07-29T10:35:32;23.30;95.90
1700;DHT22;847;48.058;7.810;2023-07-29T10:38:00;23.20;96.30
1700;DHT22;847;48.058;7.810;2023-07-29T10:40:43;23.30;96.20
1700;DHT22;847;48.058;7.810;2023-07-29T10:43:11;23.30;96.40
1700;DHT22;847;48.058;7.810;2023-07-29T10:45:41;23.30;96.40
1700;DHT22;847;48.058;7.810;2023-07-29T10:48:12;23.40;95.70
1700;DHT22;847;48.058;7.810;2023-07-29T10:50:39;23.40;95.90
1700;DHT22;847;48.058;7.810;2023-07-29T10:53:06;23.50;95.10
1700;DHT22;847;48.058;7.810;2023-07-29T10:55:34;23.50;96.00
1700;DHT22;847;48.058;7.810;2023-07-29T10:58:07;23.60;96.10
1700;DHT22;847;48.058;7.810;2023-07-29T11:00:34;23.60;95.80
1700;DHT22;847;48.058;7.810;2023-07-29T11:03:02;23.60;95.80
1700;DHT22;847;48.058;7.810;2023-07-29T11:05:44;23.70;95.20
1700;DHT22;847;48.058;7.810;2023-07-29T11:08:18;23.80;95.00
1700;DHT22;847;48.058;7.810;2023-07-29T11:10:58;23.90;94.20
1700;DHT22;847;48.058;7.810;2023-07-29T11:13:26;24.00;93.80
1700;DHT22;847;48.058;7.810;2023-07-29T11:15:54;24.00;93.30
1700;DHT22;847;48.058;7.810;2023-07-29T11:18:21;24.10;90.20
1700;DHT22;847;48.058;7.810;2023-07-29T11:20:49;24.20;91.20
1700;DHT22;847;48.058;7.810;2023-07-29T11:23:16;24.30;90.60
1700;DHT22;847;48.058;7.810;2023-07-29T11:25:43;24.40;90.90
1700;DHT22;847;48.058;7.810;2023-07-29T11:28:11;24.50;90.20
1700;DHT22;847;48.058;7.810;2023-07-29T11:30:39;24.50;88.80
1700;DHT22;847;48.058;7.810;2023-07-29T11:33:06;24.50;89.20
1700;DHT22;847;48.058;7.810;2023-07-29T11:35:32;24.60;88.60
1700;DHT22;847;48.058;7.810;2023-07-29T11:38:01;24.60;89.90
1700;DHT22;847;48.058;7.810;2023-07-29T11:40:28;24.60;90.90
1700;DHT22;847;48.058;7.810;2023-07-29T11:42:54;24.80;89.40
1700;DHT22;847;48.058;7.810;2023-07-29T11:45:22;24.80;89.60
1700;DHT22;847;48.058;7.810;2023-07-29T11:47:49;24.90;87.80
1700;DHT22;847;48.058;7.810;2023-07-29T11:50:16;25.00;88.80
1700;DHT22;847;48.058;7.810;2023-07-29T11:52:44;25.00;84.30
1700;DHT22;847;48.058;7.810;2023-07-29T11:55:13;24.90;87.10
1700;DHT22;847;48.058;7.810;2023-07-29T11:57:41;24.90;88.50
1700;DHT22;847;48.058;7.810;2023-07-29T12:00:10;25.00;88.00
1700;DHT22;847;48.058;7.810;2023-07-29T12:02:39;25.00;87.10
1700;DHT22;847;48.058;7.810;2023-07-29T12:05:07;25.00;86.80
1700;DHT22;847;48.058;7.810;2023-07-29T12:07:35;25.00;86.60
1700;DHT22;847;48.058;7.810;2023-07-29T12:10:02;25.10;86.40
1700;DHT22;847;48.058;7.810;2023-07-29T12:12:31;25.20;84.70
1700;DHT22;847;48.058;7.810;2023-07-29T12:14:58;25.20;86.30
1700;DHT22;847;48.058;7.810;2023-07-29T12:17:24;25.20;86.90
1700;DHT22;847;48.058;7.810;2023-07-29T12:19:54;25.20;86.10
1700;DHT22;847;48.058;7.810;2023-07-29T12:22:21;25.20;84.30
1700;DHT22;847;48.058;7.810;2023-07-29T12:24:51;25.20;83.70
1700;DHT22;847;48.058;7.810;2023-07-29T12:27:18;25.20;85.30
1700;DHT22;847;48.058;7.810;2023-07-29T12:29:51;25.20;84.20
1700;DHT22;847;48.058;7.810;2023-07-29T12:32:18;25.20;86.50
1700;DHT22;847;48.058;7.810;2023-07-29T12:34:45;25.20;86.00
1700;DHT22;847;48.058;7.810;2023-07-29T12:37:12;25.20;85.70
1700;DHT22;847;48.058;7.810;2023-07-29T12:39:40;25.20;86.40
1700;DHT22;847;48.058;7.810;2023-07-29T12:42:07;25.10;86.50
1700;DHT22;847;48.058;7.810;2023-07-29T12:44:35;25.10;86.90
1700;DHT22;847;48.058;7.810;2023-07-29T12:47:05;25.10;86.40
1700;DHT22;847;48.058;7.810;2023-07-29T12:49:34;25.10;87.70
1700;DHT22;847;48.058;7.810;2023-07-29T12:52:01;25.10;85.70
1700;DHT22;847;48.058;7.810;2023-07-29T12:54:27;25.10;86.40
1700;DHT22;847;48.058;7.810;2023-07-29T12:56:54;25.10;85.00
1700;DHT22;847;48.058;7.810;2023-07-29T12:59:21;25.10;86.50
1700;DHT22;847;48.058;7.810;2023-07-29T13:01:48;25.10;85.10
1700;DHT22;847;48.058;7.810;2023-07-29T13:04:16;25.10;85.90
1700;DHT22;847;48.058;7.810;2023-07-29T13:06:42;25.10;86.80
1700;DHT22;847;48.058;7.810;2023-07-29T13:09:09;25.20;86.80
1700;DHT22;847;48.058;7.810;2023-07-29T13:11:36;25.20;83.90
1700;DHT22;847;48.058;7.810;2023-07-29T13:14:03;25.20;86.80
1700;DHT22;847;48.058;7.810;2023-07-29T13:16:29;25.30;86.90
1700;DHT22;847;48.058;7.810;2023-07-29T13:18:56;25.30;86.60
1700;DHT22;847;48.058;7.810;2023-07-29T13:21:24;25.40;85.00
1700;DHT22;847;48.058;7.810;2023-07-29T13:23:51;25.40;85.10
1700;DHT22;847;48.058;7.810;2023-07-29T13:26:18;25.40;85.30
1700;DHT22;847;48.058;7.810;2023-07-29T13:28:45;25.40;85.60
1700;DHT22;847;48.058;7.810;2023-07-29T13:31:12;25.30;85.20
1700;DHT22;847;48.058;7.810;2023-07-29T13:33:39;25.30;84.80
1700;DHT22;847;48.058;7.810;2023-07-29T13:36:06;25.30;84.40
1700;DHT22;847;48.058;7.810;2023-07-29T13:38:35;25.20;85.20
1700;DHT22;847;48.058;7.810;2023-07-29T13:41:02;25.20;85.10
1700;DHT22;847;48.058;7.810;2023-07-29T13:43:28;25.20;85.40
1700;DHT22;847;48.058;7.810;2023-07-29T13:45:55;25.10;85.20
1700;DHT22;847;48.058;7.810;2023-07-29T13:48:22;25.10;85.30
1700;DHT22;847;48.058;7.810;2023-07-29T13:50:48;25.00;84.20
1700;DHT22;847;48.058;7.810;2023-07-29T13:53:16;25.00;86.00
1700;DHT22;847;48.058;7.810;2023-07-29T13:55:44;25.00;86.20
1700;DHT22;847;48.058;7.810;2023-07-29T13:58:11;25.00;85.80
1700;DHT22;847;48.058;7.810;2023-07-29T14:00:38;25.00;85.30
1700;DHT22;847;48.058;7.810;2023-07-29T14:03:04;24.90;85.30
1700;DHT22;847;48.058;7.810;2023-07-29T14:05:31;24.90;86.10
1700;DHT22;847;48.058;7.810;2023-07-29T14:07:58;24.90;86.30
1700;DHT22;847;48.058;7.810;2023-07-29T14:10:24;25.00;85.90
1700;DHT22;847;48.058;7.810;2023-07-29T14:12:52;25.00;85.60
1700;DHT22;847;48.058;7.810;2023-07-29T14:15:21;25.00;85.20
1700;DHT22;847;48.058;7.810;2023-07-29T14:17:47;25.00;85.70
1700;DHT22;847;48.058;7.810;2023-07-29T14:20:14;24.90;86.00
1700;DHT22;847;48.058;7.810;2023-07-29T14:22:41;24.90;86.00
1700;DHT22;847;48.058;7.810;2023-07-29T14:25:08;24.90;84.00
1700;DHT22;847;48.058;7.810;2023-07-29T14:27:35;24.90;85.20
1700;DHT22;847;48.058;7.810;2023-07-29T14:30:03;24.90;85.80
1700;DHT22;847;48.058;7.810;2023-07-29T14:32:30;24.80;86.40
1700;DHT22;847;48.058;7.810;2023-07-29T14:34:57;24.80;86.10
1700;DHT22;847;48.058;7.810;2023-07-29T14:37:23;24.80;86.20
1700;DHT22;847;48.058;7.810;2023-07-29T14:39:50;24.70;86.60
1700;DHT22;847;48.058;7.810;2023-07-29T14:42:19;24.60;86.80
1700;DHT22;847;48.058;7.810;2023-07-29T14:44:45;24.60;87.10
1700;DHT22;847;48.058;7.810;2023-07-29T14:47:14;24.60;87.40
1700;DHT22;847;48.058;7.810;2023-07-29T14:49:40;24.50;88.00
1700;DHT22;847;48.058;7.810;2023-07-29T14:52:07;24.50;88.50
1700;DHT22;847;48.058;7.810;2023-07-29T14:54:34;24.40;90.30
1700;DHT22;847;48.058;7.810;2023-07-29T14:57:01;24.30;92.30
1700;DHT22;847;48.058;7.810;2023-07-29T14:59:27;24.20;93.30
1700;DHT22;847;48.058;7.810;2023-07-29T15:01:54;24.10;94.40
1700;DHT22;847;48.058;7.810;2023-07-29T15:04:22;24.00;95.30
1700;DHT22;847;48.058;7.810;2023-07-29T15:06:49;24.00;95.40
1700;DHT22;847;48.058;7.810;2023-07-29T15:09:16;23.80;96.80
1700;DHT22;847;48.058;7.810;2023-07-29T15:11:42;23.80;98.60
1700;DHT22;847;48.058;7.810;2023-07-29T15:14:09;23.70;99.00
1700;DHT22;847;48.058;7.810;2023-07-29T15:16:36;23.60;99.00
1700;DHT22;847;48.058;7.810;2023-07-29T15:19:04;23.60;99.00
1700;DHT22;847;48.058;7.810;2023-07-29T15:21:32;23.50;99.00
1700;DHT22;847;48.058;7.810;2023-07-29T15:23:59;23.60;99.00
1700;DHT22;847;48.058;7.810;2023-07-29T15:26:26;23.70;99.00
1700;DHT22;847;48.058;7.810;2023-07-29T15:28:53;23.70;99.00
1700;DHT22;847;48.058;7.810;2023-07-29T15:31:20;23.80;98.90
1700;DHT22;847;48.058;7.810;2023-07-29T15:33:47;23.80;97.30
1700;DHT22;847;48.058;7.810;2023-07-29T15:36:14;23.80;97.00
1700;DHT22;847;48.058;7.810;2023-07-29T15:38:42;23.80;97.50
1700;DHT22;847;48.058;7.810;2023-07-29T15:41:08;23.90;97.30
1700;DHT22;847;48.058;7.810;2023-07-29T15:43:35;23.90;97.20
1700;DHT22;847;48.058;7.810;2023-07-29T15:46:02;23.80;96.90
1700;DHT22;847;48.058;7.810;2023-07-29T15:48:29;23.80;96.80
1700;DHT22;847;48.058;7.810;2023-07-29T15:50:55;23.80;97.00
1700;DHT22;847;48.058;7.810;2023-07-29T15:53:22;23.80;96.40
1700;DHT22;847;48.058;7.810;2023-07-29T15:55:51;23.80;96.60
1700;DHT22;847;48.058;7.810;2023-07-29T15:58:18;23.80;96.20
1700;DHT22;847;48.058;7.810;2023-07-29T16:00:44;23.80;95.70
1700;DHT22;847;48.058;7.810;2023-07-29T16:03:11;23.80;96.10
1700;DHT22;847;48.058;7.810;2023-07-29T16:05:38;23.80;95.60
1700;DHT22;847;48.058;7.810;2023-07-29T16:08:04;23.80;95.60
1700;DHT22;847;48.058;7.810;2023-07-29T16:10:31;23.80;95.30
1700;DHT22;847;48.058;7.810;2023-07-29T16:12:59;23.80;95.40
1700;DHT22;847;48.058;7.810;2023-07-29T16:15:28;23.80;95.60
1700;DHT22;847;48.058;7.810;2023-07-29T16:17:55;23.70;95.90
1700;DHT22;847;48.058;7.810;2023-07-29T16:20:23;23.70;96.00